createdAt,value
2022-10-05T00:00:28.288Z,12.88
2022-10-05T00:03:15.519Z,12.84
2022-10-05T00:05:45.833Z,12.80
2022-10-05T00:08:24.027Z,12.81
2022-10-05T00:10:52.594Z,12.82
2022-10-05T00:13:30.443Z,12.77
2022-10-05T00:16:19.919Z,12.70
2022-10-05T00:18:51.974Z,12.66
2022-10-05T00:21:26.658Z,12.62
2022-10-05T00:23:58.113Z,12.60
2022-10-05T00:26:33.280Z,12.56
2022-10-05T00:29:02.521Z,12.59
2022-10-05T00:31:36.279Z,12.63
2022-10-05T00:34:03.304Z,12.64
2022-10-05T00:36:30.429Z,12.61
2022-10-05T00:38:57.225Z,12.61
2022-10-05T00:42:08.571Z,12.63
2022-10-05T00:44:58.071Z,12.65
2022-10-05T00:47:59.882Z,12.58
2022-10-05T00:51:21.099Z,12.48
2022-10-05T00:54:05.831Z,12.43
2022-10-05T00:56:40.138Z,12.39
2022-10-05T00:59:42.624Z,12.34
2022-10-05T01:02:30.905Z,12.30
2022-10-05T01:05:24.221Z,12.28
2022-10-05T01:08:13.354Z,12.19
2022-10-05T01:11:02.157Z,12.14
2022-10-05T01:13:49.268Z,12.11
2022-10-05T01:16:51.056Z,12.18
2022-10-05T01:19:45.993Z,12.17
2022-10-05T01:22:54.042Z,12.13
2022-10-05T01:25:51.667Z,12.05
2022-10-05T01:28:28.927Z,12.03
2022-10-05T01:31:23.022Z,12.00
2022-10-05T01:34:12.713Z,12.05
2022-10-05T01:37:21.253Z,12.06
2022-10-05T01:40:58.371Z,12.06
2022-10-05T01:43:46.603Z,12.06
2022-10-05T01:46:46.091Z,12.04
2022-10-05T01:49:54.282Z,12.01
2022-10-05T01:53:00.103Z,11.97
2022-10-05T01:55:39.156Z,11.92
2022-10-05T01:58:30.458Z,11.94
2022-10-05T02:01:10.380Z,11.96
2022-10-05T02:03:47.533Z,11.96
2022-10-05T02:06:20.517Z,11.89
2022-10-05T02:08:53.638Z,11.89
2022-10-05T02:11:20.837Z,11.89
2022-10-05T02:14:10.548Z,11.89
2022-10-05T02:16:44.366Z,11.87
2022-10-05T02:19:35.084Z,11.86
2022-10-05T02:22:10.102Z,11.89
2022-10-05T02:24:46.289Z,11.95
2022-10-05T02:27:21.426Z,11.95
2022-10-05T02:29:50.954Z,11.93
2022-10-05T02:32:27.424Z,11.93
2022-10-05T02:35:04.083Z,11.92
2022-10-05T02:38:07.514Z,11.92
2022-10-05T02:40:55.760Z,11.95
2022-10-05T02:43:50.207Z,11.92
2022-10-05T02:46:36.709Z,11.90
2022-10-05T02:49:42.279Z,11.86
2022-10-05T02:52:28.118Z,11.78
2022-10-05T02:55:24.741Z,11.74
2022-10-05T02:58:16.382Z,11.69
2022-10-05T03:01:03.094Z,11.64
2022-10-05T03:03:45.125Z,11.61
2022-10-05T03:06:27.506Z,11.57
2022-10-05T03:09:05.964Z,11.62
2022-10-05T03:12:00.208Z,11.59
2022-10-05T03:14:50.827Z,11.58
2022-10-05T03:17:23.320Z,11.56
2022-10-05T03:20:17.276Z,11.54
2022-10-05T03:23:01.452Z,11.52
2022-10-05T03:26:06.082Z,11.55
2022-10-05T03:28:57.746Z,11.63
2022-10-05T03:31:51.318Z,11.62
2022-10-05T03:34:53.915Z,11.66
2022-10-05T03:37:42.000Z,11.66
2022-10-05T03:40:40.336Z,11.64
2022-10-05T03:43:41.843Z,11.67
2022-10-05T03:46:40.335Z,11.70
2022-10-05T03:49:52.789Z,11.72
2022-10-05T03:52:36.613Z,11.80
2022-10-05T03:55:34.087Z,11.80
2022-10-05T03:58:14.995Z,11.75
2022-10-05T04:00:49.021Z,11.71
2022-10-05T04:03:30.246Z,11.72
2022-10-05T04:06:43.250Z,11.70
2022-10-05T04:09:30.321Z,11.69
2022-10-05T04:12:15.363Z,11.70
2022-10-05T04:14:51.487Z,11.73
2022-10-05T04:17:33.131Z,11.78
2022-10-05T04:20:17.671Z,11.75
2022-10-05T04:23:17.123Z,11.71
2022-10-05T04:25:53.977Z,11.73
2022-10-05T04:28:45.097Z,11.71
2022-10-05T04:31:28.230Z,11.62
2022-10-05T04:34:27.422Z,11.59
2022-10-05T04:37:06.105Z,11.53
2022-10-05T04:40:28.100Z,11.51
2022-10-05T04:43:17.613Z,11.46
2022-10-05T04:46:12.978Z,11.42
2022-10-05T04:49:04.177Z,11.35
2022-10-05T04:51:42.671Z,11.35
2022-10-05T04:54:56.111Z,11.36
2022-10-05T04:57:32.456Z,11.35
2022-10-05T05:00:22.630Z,11.32
2022-10-05T05:03:20.226Z,11.33
2022-10-05T05:06:18.367Z,11.34
2022-10-05T05:09:22.631Z,11.30
2022-10-05T05:12:23.586Z,11.25
2022-10-05T05:15:26.777Z,11.23
2022-10-05T05:18:26.579Z,11.20
2022-10-05T05:21:35.506Z,11.21
2022-10-05T05:24:30.407Z,11.24
2022-10-05T05:27:18.817Z,11.27
2022-10-05T05:30:46.007Z,11.32
2022-10-05T05:33:40.800Z,11.36
2022-10-05T05:36:32.179Z,11.39
2022-10-05T05:39:36.639Z,11.39
2022-10-05T05:42:53.278Z,11.33
2022-10-05T05:45:43.802Z,11.34
2022-10-05T05:48:26.896Z,11.31
2022-10-05T05:51:07.703Z,11.32
2022-10-05T05:53:44.455Z,11.33
2022-10-05T05:56:29.363Z,11.30
2022-10-05T05:59:20.410Z,11.29
2022-10-05T06:02:07.014Z,11.28
2022-10-05T06:04:52.492Z,11.35
2022-10-05T06:07:30.327Z,11.40
2022-10-05T06:10:58.685Z,11.42
2022-10-05T06:13:38.518Z,11.43
2022-10-05T06:16:46.436Z,11.47
2022-10-05T06:19:18.633Z,11.49
2022-10-05T06:22:05.565Z,11.53
2022-10-05T06:25:11.816Z,11.58
2022-10-05T06:28:13.479Z,11.61
2022-10-05T06:30:58.542Z,11.62
2022-10-05T06:33:53.895Z,11.65
2022-10-05T06:36:26.198Z,11.66
2022-10-05T06:39:31.924Z,11.70
2022-10-05T06:42:29.244Z,11.73
2022-10-05T06:45:16.489Z,11.78
2022-10-05T06:48:08.267Z,11.83
2022-10-05T06:51:04.370Z,11.90
2022-10-05T06:54:39.394Z,11.97
2022-10-05T06:57:24.578Z,12.00
2022-10-05T07:00:17.844Z,12.10
2022-10-05T07:03:05.163Z,12.17
2022-10-05T07:06:05.852Z,12.26
2022-10-05T07:08:38.927Z,12.34
2022-10-05T07:11:27.361Z,12.40
2022-10-05T07:14:21.888Z,12.48
2022-10-05T07:17:22.445Z,12.53
2022-10-05T07:20:37.125Z,12.59
2022-10-05T07:23:45.358Z,12.65
2022-10-05T07:26:38.014Z,12.66
2022-10-05T07:29:07.460Z,12.69
2022-10-05T07:32:07.473Z,12.74
2022-10-05T07:34:49.892Z,12.74
2022-10-05T07:37:53.676Z,12.78
2022-10-05T07:40:59.179Z,12.84
2022-10-05T07:44:00.979Z,12.91
2022-10-05T07:46:55.111Z,12.97
2022-10-05T07:49:42.398Z,13.02
2022-10-05T07:52:34.922Z,13.08
2022-10-05T07:55:25.286Z,13.13
2022-10-05T07:58:23.530Z,13.22
2022-10-05T08:01:31.300Z,13.29
2022-10-05T08:04:22.926Z,13.36
2022-10-05T08:07:17.072Z,13.43
2022-10-05T08:09:54.760Z,13.48
2022-10-05T08:12:55.037Z,13.54
2022-10-05T08:15:31.619Z,13.62
2022-10-05T08:18:35.994Z,13.65
2022-10-05T08:21:11.883Z,13.71
2022-10-05T08:24:06.087Z,13.75
2022-10-05T08:26:53.183Z,13.81
2022-10-05T08:29:35.349Z,13.86
2022-10-05T08:32:26.397Z,13.90
2022-10-05T08:35:34.336Z,13.96
2022-10-05T08:38:18.539Z,13.93
2022-10-05T08:41:32.374Z,13.92
2022-10-05T08:44:37.863Z,13.96
2022-10-05T08:47:36.330Z,14.05
2022-10-05T08:50:25.183Z,14.10
2022-10-05T08:53:25.686Z,14.15
2022-10-05T08:56:33.360Z,14.22
2022-10-05T08:59:40.785Z,14.30
2022-10-05T09:02:44.534Z,14.31
2022-10-05T09:06:14.584Z,14.39
2022-10-05T09:09:15.215Z,14.45
2022-10-05T09:12:40.424Z,14.53
2022-10-05T09:16:03.353Z,14.63
2022-10-05T09:18:55.072Z,14.74
2022-10-05T09:21:58.305Z,14.82
2022-10-05T09:24:56.283Z,14.87
2022-10-05T09:28:19.601Z,15.00
2022-10-05T09:31:24.087Z,15.11
2022-10-05T09:34:32.561Z,15.19
2022-10-05T09:37:32.556Z,15.28
2022-10-05T09:40:14.721Z,15.33
2022-10-05T09:43:20.179Z,15.42
2022-10-05T09:46:25.755Z,15.49
2022-10-05T09:49:07.984Z,15.60
2022-10-05T09:52:06.330Z,15.74
2022-10-05T09:55:14.554Z,15.88
2022-10-05T09:57:53.634Z,15.97
2022-10-05T10:01:09.303Z,16.09
2022-10-05T10:03:55.457Z,16.18
2022-10-05T10:06:51.528Z,16.26
2022-10-05T10:10:01.391Z,16.37
2022-10-05T10:12:53.592Z,16.45
2022-10-05T10:15:38.758Z,16.50
2022-10-05T10:18:46.063Z,16.54
2022-10-05T10:22:22.493Z,16.56
2022-10-05T10:25:52.412Z,16.62
2022-10-05T10:28:42.132Z,16.72
2022-10-05T10:31:45.882Z,16.82
2022-10-05T10:34:43.876Z,16.88
2022-10-05T10:37:35.512Z,16.96
2022-10-05T10:40:20.895Z,17.03
2022-10-05T10:43:29.951Z,17.09
2022-10-05T10:46:39.547Z,17.16
2022-10-05T10:49:35.255Z,17.21
2022-10-05T10:52:41.547Z,17.29
2022-10-05T10:55:34.072Z,17.36
2022-10-05T10:58:47.400Z,17.37
2022-10-05T11:01:32.868Z,17.45
2022-10-05T11:04:47.619Z,17.50
2022-10-05T11:07:48.423Z,17.55
2022-10-05T11:11:02.544Z,17.51
2022-10-05T11:14:02.819Z,17.55
2022-10-05T11:16:42.002Z,17.55
2022-10-05T11:20:02.632Z,17.63
2022-10-05T11:22:33.273Z,17.71
2022-10-05T11:25:44.592Z,17.75
2022-10-05T11:28:39.560Z,17.83
2022-10-05T11:31:37.977Z,17.92
2022-10-05T11:34:49.194Z,18.01
2022-10-05T11:37:51.243Z,18.06
2022-10-05T11:40:26.865Z,18.10
2022-10-05T11:43:50.583Z,18.16
2022-10-05T11:46:30.558Z,18.20
2022-10-05T11:49:23.379Z,18.21
2022-10-05T11:52:11.099Z,18.23
2022-10-05T11:55:13.507Z,18.24
2022-10-05T11:58:09.562Z,18.32
2022-10-05T12:00:44.993Z,18.35
2022-10-05T12:03:33.854Z,18.39
2022-10-05T12:06:51.816Z,18.42
2022-10-05T12:10:08.662Z,18.53
2022-10-05T12:13:02.460Z,18.59
2022-10-05T12:15:43.365Z,18.64
2022-10-05T12:18:32.658Z,18.70
2022-10-05T12:21:27.721Z,18.73
2022-10-05T12:24:26.845Z,18.77
2022-10-05T12:27:08.233Z,18.78
2022-10-05T12:30:01.612Z,18.81
2022-10-05T12:32:58.135Z,18.84
2022-10-05T12:36:01.471Z,18.86
2022-10-05T12:38:52.830Z,18.85
2022-10-05T12:41:32.271Z,18.86
2022-10-05T12:44:49.197Z,18.89
2022-10-05T12:47:53.819Z,18.92
2022-10-05T12:50:49.232Z,18.93
2022-10-05T12:53:48.435Z,18.96
2022-10-05T12:56:52.255Z,19.02
2022-10-05T12:59:46.343Z,19.05
2022-10-05T13:02:42.574Z,19.11
2022-10-05T13:05:09.618Z,19.17
2022-10-05T13:08:18.095Z,19.19
2022-10-05T13:11:35.165Z,19.23
2022-10-05T13:14:17.977Z,19.29
2022-10-05T13:17:03.915Z,19.32
2022-10-05T13:19:41.108Z,19.33
2022-10-05T13:22:37.294Z,19.34
2022-10-05T13:25:22.657Z,19.35
2022-10-05T13:28:07.777Z,19.33
2022-10-05T13:30:39.132Z,19.35
2022-10-05T13:33:18.063Z,19.36
2022-10-05T13:36:30.109Z,19.38
2022-10-05T13:39:05.546Z,19.39
2022-10-05T13:41:55.174Z,19.41
2022-10-05T13:44:53.798Z,19.39
2022-10-05T13:48:03.786Z,19.39
2022-10-05T13:50:36.264Z,19.39
2022-10-05T13:53:37.255Z,19.42
2022-10-05T13:56:22.315Z,19.43
2022-10-05T13:59:12.148Z,19.43
2022-10-05T14:01:57.037Z,19.43
2022-10-05T14:04:57.618Z,19.42
2022-10-05T14:07:38.932Z,19.42
2022-10-05T14:10:44.030Z,19.40
2022-10-05T14:13:43.454Z,19.40
2022-10-05T14:16:13.586Z,19.39
2022-10-05T14:19:27.103Z,19.37
2022-10-05T14:22:02.175Z,19.38
2022-10-05T14:24:44.231Z,19.36
2022-10-05T14:27:28.441Z,19.36
2022-10-05T14:30:25.688Z,19.37
2022-10-05T14:33:22.368Z,19.39
2022-10-05T14:35:53.623Z,19.40
2022-10-05T14:38:32.595Z,19.40
2022-10-05T14:41:19.196Z,19.41
2022-10-05T14:44:28.816Z,19.41
2022-10-05T14:47:02.834Z,19.44
2022-10-05T14:49:36.179Z,19.45
2022-10-05T14:52:32.657Z,19.45
2022-10-05T14:55:30.268Z,19.45
2022-10-05T14:58:24.910Z,19.45
2022-10-05T15:01:35.062Z,19.47
2022-10-05T15:04:37.000Z,19.48
2022-10-05T15:07:21.689Z,19.48
2022-10-05T15:10:36.979Z,19.47
2022-10-05T15:13:19.987Z,19.47
2022-10-05T15:16:05.396Z,19.46
2022-10-05T15:18:34.750Z,19.46
2022-10-05T15:21:56.262Z,19.44
2022-10-05T15:24:30.400Z,19.44
2022-10-05T15:27:03.511Z,19.43
2022-10-05T15:30:19.314Z,19.40
2022-10-05T15:33:09.309Z,19.36
2022-10-05T15:36:22.614Z,19.34
2022-10-05T15:39:36.339Z,19.30
2022-10-05T15:42:14.664Z,19.26
2022-10-05T15:45:10.781Z,19.26
2022-10-05T15:48:00.100Z,19.24
2022-10-05T15:50:45.968Z,19.22
2022-10-05T15:53:27.250Z,19.18
2022-10-05T15:56:30.034Z,19.16
2022-10-05T15:59:18.725Z,19.11
2022-10-05T16:01:57.187Z,19.11
2022-10-05T16:04:41.458Z,19.09
2022-10-05T16:07:39.463Z,19.05
2022-10-05T16:10:21.621Z,19.03
2022-10-05T16:13:10.108Z,19.00
2022-10-05T16:16:12.713Z,18.98
2022-10-05T16:19:08.278Z,18.92
2022-10-05T16:22:28.360Z,18.88
2022-10-05T16:25:08.905Z,18.85
2022-10-05T16:28:19.734Z,18.83
2022-10-05T16:31:00.196Z,18.78
2022-10-05T16:33:55.362Z,18.76
2022-10-05T16:36:53.182Z,18.74
2022-10-05T16:39:55.147Z,18.72
2022-10-05T16:42:44.044Z,18.69
2022-10-05T16:45:45.107Z,18.68
2022-10-05T16:48:26.732Z,18.65
2022-10-05T16:51:09.006Z,18.63
2022-10-05T16:53:46.621Z,18.61
2022-10-05T16:56:26.001Z,18.60
2022-10-05T16:59:36.991Z,18.57
2022-10-05T17:02:18.334Z,18.54
2022-10-05T17:05:30.482Z,18.53
2022-10-05T17:08:30.545Z,18.49
2022-10-05T17:11:22.202Z,18.47
2022-10-05T17:13:57.999Z,18.43
2022-10-05T17:17:07.092Z,18.41
2022-10-05T17:20:29.397Z,18.37
2022-10-05T17:23:29.307Z,18.35
2022-10-05T17:26:47.208Z,18.33
2022-10-05T17:29:45.882Z,18.31
2022-10-05T17:32:39.626Z,18.29
2022-10-05T17:35:39.846Z,18.26
2022-10-05T17:38:20.311Z,18.25
2022-10-05T17:41:30.411Z,18.23
2022-10-05T17:44:24.863Z,18.22
2022-10-05T17:47:01.459Z,18.20
2022-10-05T17:49:34.415Z,18.16
2022-10-05T17:52:42.409Z,18.15
2022-10-05T17:55:44.899Z,18.11
2022-10-05T17:58:56.327Z,18.09
2022-10-05T18:01:38.650Z,18.06
2022-10-05T18:04:11.932Z,18.04
2022-10-05T18:06:59.067Z,18.02
2022-10-05T18:09:27.334Z,18.01
2022-10-05T18:12:39.729Z,17.99
2022-10-05T18:15:06.815Z,17.98
2022-10-05T18:17:51.578Z,17.96
2022-10-05T18:20:30.808Z,17.95
2022-10-05T18:23:03.895Z,17.93
2022-10-05T18:25:53.391Z,17.90
2022-10-05T18:29:14.977Z,17.89
2022-10-05T18:32:36.173Z,17.84
2022-10-05T18:35:38.624Z,17.83
2022-10-05T18:38:30.092Z,17.79
2022-10-05T18:41:15.737Z,17.75
2022-10-05T18:44:34.790Z,17.73
2022-10-05T18:47:25.643Z,17.71
2022-10-05T18:50:07.044Z,17.68
2022-10-05T18:52:50.857Z,17.67
2022-10-05T18:55:28.733Z,17.65
2022-10-05T18:58:14.922Z,17.63
2022-10-05T19:01:29.923Z,17.61
2022-10-05T19:04:23.433Z,17.60
2022-10-05T19:07:15.601Z,17.58
2022-10-05T19:10:35.747Z,17.56
2022-10-05T19:13:43.381Z,17.57
2022-10-05T19:16:47.056Z,17.54
2022-10-05T19:19:36.055Z,17.52
2022-10-05T19:22:25.218Z,17.48
2022-10-05T19:25:04.472Z,17.45
2022-10-05T19:28:02.539Z,17.42
2022-10-05T19:30:59.271Z,17.38
2022-10-05T19:33:58.428Z,17.36
2022-10-05T19:37:03.348Z,17.29
2022-10-05T19:39:45.207Z,17.29
2022-10-05T19:42:53.198Z,17.26
2022-10-05T19:45:58.495Z,17.25
2022-10-05T19:48:40.681Z,17.21
2022-10-05T19:51:35.114Z,17.17
2022-10-05T19:54:21.415Z,17.14
2022-10-05T19:56:54.139Z,17.12
2022-10-05T19:59:28.454Z,17.10
2022-10-05T20:01:58.175Z,17.08
2022-10-05T20:04:49.552Z,17.06
2022-10-05T20:07:23.340Z,17.03
2022-10-05T20:10:00.512Z,17.01
2022-10-05T20:12:51.940Z,16.99
2022-10-05T20:15:42.245Z,16.99
2022-10-05T20:18:50.991Z,16.94
2022-10-05T20:21:39.639Z,16.91
2022-10-05T20:24:27.678Z,16.91
2022-10-05T20:27:16.136Z,16.89
2022-10-05T20:29:45.059Z,16.88
2022-10-05T20:32:18.196Z,16.88
2022-10-05T20:34:47.888Z,16.88
2022-10-05T20:37:20.371Z,16.86
2022-10-05T20:39:51.139Z,16.85
2022-10-05T20:42:20.833Z,16.83
2022-10-05T20:44:50.783Z,16.80
2022-10-05T20:47:20.307Z,16.78
2022-10-05T20:49:47.170Z,16.75
2022-10-05T20:52:15.828Z,16.69
2022-10-05T20:54:43.034Z,16.68
2022-10-05T20:57:10.286Z,16.66
2022-10-05T20:59:38.087Z,16.64
2022-10-05T21:02:06.139Z,16.61
2022-10-05T21:04:42.883Z,16.59
2022-10-05T21:07:10.255Z,16.57
2022-10-05T21:09:39.183Z,16.55
2022-10-05T21:12:06.020Z,16.54
2022-10-05T21:14:34.488Z,16.49
2022-10-05T21:17:02.145Z,16.46
2022-10-05T21:19:29.674Z,16.45
2022-10-05T21:22:02.508Z,16.44
2022-10-05T21:24:29.362Z,16.42
2022-10-05T21:26:57.647Z,16.41
2022-10-05T21:29:24.905Z,16.42
2022-10-05T21:31:52.052Z,16.43
2022-10-05T21:34:19.254Z,16.43
2022-10-05T21:36:46.494Z,16.38
2022-10-05T21:39:15.195Z,16.39
2022-10-05T21:41:42.026Z,16.38
2022-10-05T21:44:09.114Z,16.38
2022-10-05T21:46:38.896Z,16.37
2022-10-05T21:49:07.731Z,16.35
2022-10-05T21:51:39.300Z,16.35
2022-10-05T21:54:17.326Z,16.33
2022-10-05T21:56:50.366Z,16.31
2022-10-05T21:59:22.139Z,16.28
2022-10-05T22:01:49.185Z,16.27
2022-10-05T22:04:16.470Z,16.26
2022-10-05T22:06:43.603Z,16.23
2022-10-05T22:09:10.945Z,16.24
2022-10-05T22:11:38.392Z,16.23
2022-10-05T22:14:05.267Z,16.23
2022-10-05T22:16:38.561Z,16.19
2022-10-05T22:19:12.852Z,16.17
2022-10-05T22:21:41.836Z,16.17
2022-10-05T22:24:11.690Z,16.14
2022-10-05T22:26:41.520Z,16.10
2022-10-05T22:29:09.684Z,16.08
2022-10-05T22:31:37.199Z,15.97
2022-10-05T22:34:04.252Z,15.97
2022-10-05T22:36:33.507Z,15.95
2022-10-05T22:39:00.327Z,15.92
2022-10-05T22:41:27.139Z,15.90
2022-10-05T22:43:54.202Z,15.90
2022-10-05T22:46:21.521Z,15.87
2022-10-05T22:48:48.389Z,15.87
2022-10-05T22:51:15.844Z,15.87
2022-10-05T22:53:42.725Z,15.86
2022-10-05T22:56:13.807Z,15.85
2022-10-05T22:58:43.050Z,15.85
2022-10-05T23:01:16.398Z,15.82
2022-10-05T23:03:44.342Z,15.81
2022-10-05T23:06:19.105Z,15.80
2022-10-05T23:08:46.811Z,15.80
2022-10-05T23:11:23.697Z,15.78
2022-10-05T23:13:52.369Z,15.76
2022-10-05T23:16:22.921Z,15.72
2022-10-05T23:18:52.528Z,15.72
2022-10-05T23:21:21.813Z,15.68
2022-10-05T23:23:51.092Z,15.65
2022-10-05T23:26:22.756Z,15.62
2022-10-05T23:28:50.535Z,15.58
2022-10-05T23:31:21.922Z,15.54
2022-10-05T23:33:49.312Z,15.51
2022-10-05T23:36:24.636Z,15.48
2022-10-05T23:38:52.656Z,15.45
2022-10-05T23:41:20.730Z,15.41
2022-10-05T23:43:48.151Z,15.38
2022-10-05T23:46:15.487Z,15.32
2022-10-05T23:48:42.499Z,15.25
2022-10-05T23:51:12.942Z,15.22
2022-10-05T23:53:40.262Z,15.19
2022-10-05T23:56:07.711Z,15.19
2022-10-05T23:58:34.592Z,15.15
